Terminal Aerodrome Forecast
Issued by NWS Sterling, VA

Home | Current Version | Previous Version | Text Only | Print | Product List | Glossary On
Versions: 1 2 3 4 5 6 7 8 9 10 11 12 13 14 15 16 17
000
FTUS41 KLWX 210500
TAFCHO
TAF
KCHO 210537Z 2106/2206 00000KT P6SM SCT001
      TEMPO 2106/2110 00000KT 1/2SM FG BKN001
     FM211000 00000KT 2SM BR FEW008 SCT080
     FM211200 00000KT P6SM FEW008 SCT070
     FM211600 VRB03KT P6SM BKN110
     FM212100 25004KT P6SM VCTS SCT030 BKN060CB
     FM220200 VRB04KT P6SM BKN050 BKN100=

USA.gov is the U.S. government's official web portal to all federal, state and local government web resources and services.